Time;durP1;ratioP1;P1;durP2;ratioP2;P2;SDS_P1;SDS_P2;PMS_P1;PMS_P2;Temp;Humidity;BMP_temperature;BMP_pressure;BME280_temperature;BME280_humidity;BME280_pressure;Samples;Min_cycle;Max_cycle;Signal;HPM_P1;HPM_P2
2022/09/02 00:01:58;;;;;;;6.10;5.60;;;;;;;14.73;100.00;96523.53;5103443;28;20285;-49
2022/09/02 00:04:26;;;;;;;6.10;5.60;;;;;;;14.79;100.00;96517.50;5103820;28;20237;-48
2022/09/02 00:06:54;;;;;;;5.47;5.03;;;;;;;14.76;100.00;96523.19;5104031;28;20316;-51
2022/09/02 00:09:23;;;;;;;6.03;5.53;;;;;;;14.69;100.00;96513.41;5102696;28;20663;-50
2022/09/02 00:11:51;;;;;;;6.27;5.73;;;;;;;14.73;100.00;96512.06;5102995;28;20244;-51
2022/09/02 00:14:19;;;;;;;6.00;5.50;;;;;;;14.75;100.00;96521.53;5102157;28;20285;-49
2022/09/02 00:16:50;;;;;;;6.17;5.67;;;;;;;14.75;100.00;96516.19;5101804;28;20292;-50
2022/09/02 00:19:19;;;;;;;7.40;5.50;;;;;;;14.61;100.00;96519.56;5103092;28;20202;-48
2022/09/02 00:21:45;;;;;;;6.13;5.73;;;;;;;14.64;100.00;96507.75;5102548;28;20220;-49
2022/09/02 00:24:12;;;;;;;6.07;5.67;;;;;;;14.63;100.00;96506.91;5102466;28;20224;-50
2022/09/02 00:26:39;;;;;;;6.00;5.60;;;;;;;14.65;100.00;96509.41;5103035;28;20347;-50
2022/09/02 00:29:06;;;;;;;5.73;5.20;;;;;;;14.63;100.00;96512.22;5102282;28;20590;-51
2022/09/02 00:31:35;;;;;;;7.80;5.47;;;;;;;14.61;100.00;96508.94;5102113;28;20287;-48
2022/09/02 00:34:02;;;;;;;5.73;5.23;;;;;;;14.59;100.00;96508.28;5102510;28;20202;-49
2022/09/02 00:36:30;;;;;;;6.33;5.73;;;;;;;14.60;100.00;96509.91;5102954;28;20244;-48
2022/09/02 00:38:57;;;;;;;5.83;5.43;;;;;;;14.57;100.00;96504.09;5100870;28;20220;-48
2022/09/02 00:41:27;;;;;;;6.80;5.97;;;;;;;14.52;100.00;96511.78;5102843;28;20626;-51
2022/09/02 00:43:55;;;;;;;6.40;5.70;;;;;;;14.50;100.00;96509.28;5100635;28;20588;-50
2022/09/02 00:46:24;;;;;;;6.43;5.80;;;;;;;14.50;100.00;96511.09;5101662;28;20697;-50
2022/09/02 00:48:57;;;;;;;6.00;5.50;;;;;;;14.49;100.00;96504.94;5100795;28;20915;-51
2022/09/02 00:51:24;;;;;;;6.83;5.50;;;;;;;14.44;100.00;96502.81;5102198;28;20202;-49
2022/09/02 00:53:52;;;;;;;6.10;5.50;;;;;;;14.47;100.00;96508.78;5101699;28;20239;-49
2022/09/02 00:56:22;;;;;;;6.87;6.37;;;;;;;14.49;100.00;96504.94;5101988;28;20206;-49
2022/09/02 00:58:50;;;;;;;6.37;5.87;;;;;;;14.42;100.00;96502.16;5101103;28;20631;-51
2022/09/02 01:01:17;;;;;;;6.63;6.03;;;;;;;14.38;100.00;96510.66;5102687;28;20316;-50
2022/09/02 01:03:44;;;;;;;5.93;5.43;;;;;;;14.38;100.00;96506.16;5102143;28;20221;-51
2022/09/02 01:06:14;;;;;;;7.03;6.00;;;;;;;14.40;100.00;96509.47;5123302;28;20332;-50
2022/09/02 01:08:42;;;;;;;8.07;6.27;;;;;;;14.41;100.00;96497.84;5120486;28;20254;-50
2022/09/02 01:11:11;;;;;;;7.13;6.30;;;;;;;14.37;100.00;96501.00;5110121;28;20237;-50
2022/09/02 01:13:40;;;;;;;6.67;6.17;;;;;;;14.34;100.00;96498.69;5103096;28;20205;-49
2022/09/02 01:16:11;;;;;;;6.20;5.57;;;;;;;14.29;100.00;96501.00;5102382;28;20637;-50
2022/09/02 01:18:39;;;;;;;6.97;6.37;;;;;;;14.25;100.00;96502.31;5100948;28;20269;-48
2022/09/02 01:21:06;;;;;;;7.73;5.93;;;;;;;14.25;100.00;96499.66;5101380;28;20233;-51
2022/09/02 01:23:34;;;;;;;9.47;6.33;;;;;;;14.25;100.00;96502.31;5101899;28;20193;-51
2022/09/02 01:26:01;;;;;;;8.80;6.17;;;;;;;14.22;100.00;96502.66;5100278;28;20307;-50
2022/09/02 01:28:28;;;;;;;9.00;6.57;;;;;;;14.22;100.00;96494.69;5101649;28;20303;-50
2022/09/02 01:30:55;;;;;;;7.37;6.53;;;;;;;14.19;100.00;96501.19;5101285;28;20251;-48
2022/09/02 01:33:23;;;;;;;11.70;6.70;;;;;;;14.19;100.00;96505.66;5101615;28;20292;-51
2022/09/02 01:35:50;;;;;;;7.17;6.30;;;;;;;14.15;100.00;96499.84;5101188;28;20276;-50
2022/09/02 01:38:17;;;;;;;7.37;6.10;;;;;;;14.04;100.00;96489.56;5100784;28;20285;-48
2022/09/02 01:40:45;;;;;;;6.67;6.00;;;;;;;14.05;100.00;96493.06;5099612;28;20288;-50
2022/09/02 01:43:15;;;;;;;7.53;6.30;;;;;;;14.04;100.00;96491.38;5101230;28;20285;-48
2022/09/02 01:45:44;;;;;;;7.67;6.20;;;;;;;13.98;100.00;96495.56;5100568;28;20289;-50
2022/09/02 01:48:11;;;;;;;7.43;6.30;;;;;;;13.93;100.00;96492.56;5099858;28;20264;-49
2022/09/02 01:50:41;;;;;;;6.87;6.20;;;;;;;13.95;100.00;96490.59;5101308;28;20206;-49
2022/09/02 01:53:07;;;;;;;6.50;5.93;;;;;;;13.99;100.00;96483.94;5100609;28;20686;-49
2022/09/02 01:55:35;;;;;;;6.13;5.70;;;;;;;14.00;100.00;96482.06;5099962;28;20226;-50
2022/09/02 01:58:03;;;;;;;6.83;6.23;;;;;;;14.03;100.00;96487.88;5101823;28;20232;-49
2022/09/02 02:00:30;;;;;;;6.67;6.10;;;;;;;13.95;100.00;96485.25;5101549;28;20237;-50
2022/09/02 02:02:56;;;;;;;6.53;5.97;;;;;;;13.98;100.00;96481.44;5101362;28;20232;-50
2022/09/02 02:05:23;;;;;;;6.13;5.63;;;;;;;13.95;100.00;96483.44;5100739;28;20316;-49
2022/09/02 02:07:50;;;;;;;6.93;6.33;;;;;;;13.91;100.00;96486.59;5101841;28;20236;-50
2022/09/02 02:10:19;;;;;;;6.80;6.20;;;;;;;13.87;100.00;96488.75;5099993;28;20197;-47
2022/09/02 02:12:46;;;;;;;6.40;5.90;;;;;;;13.90;100.00;96487.56;5101638;28;20284;-50
2022/09/02 02:15:17;;;;;;;8.20;6.03;;;;;;;13.83;100.00;96484.75;5098999;28;20197;-49
2022/09/02 02:17:44;;;;;;;7.10;6.40;;;;;;;13.83;100.00;96491.91;5101049;28;20295;-51
2022/09/02 02:20:13;;;;;;;23.80;7.17;;;;;;;13.81;100.00;96500.06;5099960;28;20267;-49
2022/09/02 02:22:40;;;;;;;25.17;8.53;;;;;;;13.79;100.00;96494.06;5101705;28;20229;-48
2022/09/02 02:25:08;;;;;;;24.17;7.77;;;;;;;13.77;100.00;96492.56;5099356;28;20321;-48
2022/09/02 02:27:35;;;;;;;20.53;8.13;;;;;;;13.75;100.00;96490.06;5100148;28;20268;-49
2022/09/02 02:30:02;;;;;;;14.10;7.00;;;;;;;13.78;100.00;96494.25;5099696;28;20208;-49
2022/09/02 02:32:31;;;;;;;19.53;6.63;;;;;;;13.74;100.00;96485.78;5100844;28;20641;-51
2022/09/02 02:34:58;;;;;;;11.60;6.90;;;;;;;13.70;100.00;96484.44;5100129;28;20204;-49
2022/09/02 02:37:24;;;;;;;10.53;6.40;;;;;;;13.71;100.00;96486.09;5099934;28;20220;-50
2022/09/02 02:39:51;;;;;;;9.50;6.37;;;;;;;13.68;100.00;96485.59;5099400;28;20288;-50
2022/09/02 02:42:19;;;;;;;6.10;5.60;;;;;;;13.66;100.00;96487.59;5100101;28;20282;-50
2022/09/02 02:44:45;;;;;;;6.50;5.90;;;;;;;13.60;100.00;96486.44;5099730;28;20220;-49
2022/09/02 02:47:12;;;;;;;6.33;5.83;;;;;;;13.64;100.00;96486.94;5099535;28;20701;-50
2022/09/02 02:49:42;;;;;;;7.03;6.47;;;;;;;13.56;100.00;96487.75;5100148;28;20249;-49
2022/09/02 02:52:09;;;;;;;6.93;6.33;;;;;;;13.58;100.00;96496.38;5101385;28;20212;-50
2022/09/02 02:54:36;;;;;;;6.07;5.47;;;;;;;13.51;100.00;96486.56;5099962;28;20297;-49
2022/09/02 02:57:04;;;;;;;7.03;5.67;;;;;;;13.52;100.00;96489.09;5100045;28;20329;-50
2022/09/02 02:59:31;;;;;;;6.40;5.90;;;;;;;13.54;100.00;96496.88;5100286;28;20206;-49
2022/09/02 03:01:58;;;;;;;5.67;5.33;;;;;;;13.54;100.00;96487.06;5099981;28;20201;-50
2022/09/02 03:04:25;;;;;;;6.47;5.87;;;;;;;13.49;100.00;96494.72;5100916;28;20225;-49
2022/09/02 03:06:53;;;;;;;5.97;5.57;;;;;;;13.51;100.00;96497.19;5102721;28;20241;-49
2022/09/02 03:09:20;;;;;;;10.27;5.77;;;;;;;13.49;100.00;96493.88;5103992;28;20279;-48
2022/09/02 03:11:46;;;;;;;6.30;5.70;;;;;;;13.47;100.00;96491.38;5103333;28;20280;-49
2022/09/02 03:14:14;;;;;;;5.93;5.53;;;;;;;13.45;100.00;96496.03;5103980;28;20296;-49
2022/09/02 03:16:41;;;;;;;6.83;6.23;;;;;;;13.39;100.00;96489.53;5102929;28;20596;-50
2022/09/02 03:19:08;;;;;;;6.27;5.63;;;;;;;13.36;100.00;96499.66;5128935;28;20185;-50
2022/09/02 03:21:34;;;;;;;6.53;5.83;;;;;;;13.41;100.00;96494.72;5124273;28;20181;-51
2022/09/02 03:24:03;;;;;;;6.10;5.60;;;;;;;13.42;100.00;96496.38;5114557;28;20228;-50
2022/09/02 03:26:29;;;;;;;6.33;5.73;;;;;;;13.32;100.00;96493.84;5102569;28;20312;-51
2022/09/02 03:28:56;;;;;;;7.77;5.80;;;;;;;13.33;100.00;96489.38;5103963;28;20224;-49
2022/09/02 03:31:25;;;;;;;6.17;5.67;;;;;;;13.36;100.00;96489.03;5102736;28;20626;-49
2022/09/02 03:33:52;;;;;;;6.00;5.47;;;;;;;13.29;100.00;96488.88;5103264;27;20236;-50
2022/09/02 03:36:21;;;;;;;6.00;5.60;;;;;;;13.26;100.00;96489.19;5102736;28;20228;-48
2022/09/02 03:38:47;;;;;;;6.23;5.67;;;;;;;13.24;100.00;96493.84;5103197;28;20205;-50
2022/09/02 03:41:16;;;;;;;6.47;5.87;;;;;;;13.26;100.00;96491.84;5103398;28;20270;-50
2022/09/02 03:43:42;;;;;;;7.23;5.77;;;;;;;13.24;100.00;96501.81;5102453;28;20381;-49
2022/09/02 03:46:09;;;;;;;6.37;5.87;;;;;;;13.24;100.00;96506.31;5102831;28;20309;-51
2022/09/02 03:48:36;;;;;;;5.90;5.40;;;;;;;13.20;100.00;96504.97;5101801;28;20233;-48
2022/09/02 03:51:04;;;;;;;7.00;6.30;;;;;;;13.23;100.00;96507.28;5103047;28;20197;-51
2022/09/02 03:53:31;;;;;;;6.07;5.57;;;;;;;13.17;100.00;96499.97;5103408;28;20205;-49
2022/09/02 03:55:58;;;;;;;6.13;5.73;;;;;;;13.14;100.00;96500.31;5103419;28;20225;-50
2022/09/02 03:58:26;;;;;;;5.77;5.37;;;;;;;13.13;100.00;96495.97;5103258;28;20225;-50
2022/09/02 04:00:53;;;;;;;6.00;5.50;;;;;;;13.08;100.00;96500.91;5103056;28;20284;-50
2022/09/02 04:03:20;;;;;;;5.80;5.30;;;;;;;13.01;100.00;96494.56;5103105;28;20296;-50
2022/09/02 04:05:48;;;;;;;5.67;5.27;;;;;;;13.12;100.00;96496.97;5103087;28;20321;-50
2022/09/02 04:08:15;;;;;;;6.40;6.00;;;;;;;13.03;100.00;96503.22;5102813;28;20262;-49
2022/09/02 04:10:41;;;;;;;5.97;5.57;;;;;;;13.03;100.00;96503.22;5103217;28;20229;-50
2022/09/02 04:13:08;;;;;;;6.17;5.57;;;;;;;13.03;100.00;96495.25;5103552;28;20588;-49
2022/09/02 04:15:38;;;;;;;5.80;5.30;;;;;;;12.97;100.00;96494.06;5103640;28;20200;-49
2022/09/02 04:18:05;;;;;;;9.97;6.33;;;;;;;12.93;100.00;96493.56;5101211;28;20205;-51
2022/09/02 04:20:32;;;;;;;6.67;5.97;;;;;;;12.94;100.00;96497.03;5103021;28;20245;-50
2022/09/02 04:22:58;;;;;;;9.00;7.70;;;;;;;12.97;100.00;96494.06;5102711;28;20243;-49
2022/09/02 04:25:26;;;;;;;7.33;6.73;;;;;;;12.93;100.00;96492.75;5102702;28;20322;-50
2022/09/02 04:27:53;;;;;;;6.37;5.77;;;;;;;12.94;100.00;96500.53;5102423;28;20287;-50
2022/09/02 04:30:23;;;;;;;6.00;5.53;;;;;;;12.98;100.00;96493.09;5103248;28;20197;-50
2022/09/02 04:32:51;;;;;;;6.60;6.10;;;;;;;12.91;100.00;96495.56;5103586;28;20201;-50
2022/09/02 04:35:18;;;;;;;9.93;6.07;;;;;;;12.91;100.00;96495.56;5103474;28;20284;-49
2022/09/02 04:37:46;;;;;;;5.80;5.40;;;;;;;12.86;100.00;96491.72;5104293;28;20233;-49
2022/09/02 04:40:13;;;;;;;6.47;5.83;;;;;;;12.82;100.00;96501.81;5103165;28;20260;-48
2022/09/02 04:42:40;;;;;;;5.87;5.47;;;;;;;12.84;100.00;96499.84;5103085;28;20395;-50
2022/09/02 04:45:08;;;;;;;6.10;5.20;;;;;;;12.85;100.00;96498.03;5102357;28;20235;-50
2022/09/02 04:47:34;;;;;;;5.40;5.00;;;;;;;12.89;100.00;96492.22;5102490;28;20620;-50
2022/09/02 04:50:03;;;;;;;5.73;5.30;;;;;;;12.88;100.00;96493.22;5102064;28;20269;-50
2022/09/02 04:52:30;;;;;;;6.17;5.67;;;;;;;12.91;100.00;96490.25;5103869;28;20201;-50
2022/09/02 04:54:57;;;;;;;6.10;5.50;;;;;;;12.95;100.00;96496.91;5104667;28;20249;-49
2022/09/02 04:57:23;;;;;;;5.67;5.27;;;;;;;12.96;100.00;96495.91;5104770;28;21358;-50
2022/09/02 04:59:50;;;;;;;6.33;5.73;;;;;;;12.93;100.00;96498.88;5122517;28;20196;-51
2022/09/02 05:02:18;;;;;;;6.50;6.00;;;;;;;12.98;100.00;96501.88;5120081;28;20209;-49
2022/09/02 05:04:46;;;;;;;6.20;5.60;;;;;;;13.03;100.00;96497.91;5122817;28;20193;-51
2022/09/02 05:07:15;;;;;;;5.33;4.90;;;;;;;13.07;100.00;96501.91;5129601;28;20231;-51
2022/09/02 05:09:43;;;;;;;5.97;5.47;;;;;;;13.03;100.00;96498.75;5119695;28;20216;-49
2022/09/02 05:12:10;;;;;;;5.70;5.10;;;;;;;13.02;100.00;96497.09;5124746;28;20193;-50
2022/09/02 05:14:37;;;;;;;6.50;5.90;;;;;;;13.04;100.00;96507.56;5126794;28;20396;-50
2022/09/02 05:17:05;;;;;;;6.10;5.50;;;;;;;13.15;100.00;96499.28;5125753;28;20196;-50
2022/09/02 05:19:32;;;;;;;5.90;5.37;;;;;;;13.17;100.00;96499.97;5108978;28;20586;-49
2022/09/02 05:22:00;;;;;;;5.73;5.33;;;;;;;13.16;100.00;96496.50;5100128;28;20220;-49
2022/09/02 05:24:28;;;;;;;5.47;4.97;;;;;;;13.20;100.00;96494.34;5101271;28;20198;-48
2022/09/02 05:26:55;;;;;;;6.83;5.67;;;;;;;13.26;100.00;96496.34;5100833;28;20232;-50
2022/09/02 05:29:22;;;;;;;5.90;5.40;;;;;;;13.39;100.00;96494.06;5100341;28;20296;-50
2022/09/02 05:31:49;;;;;;;5.30;4.90;;;;;;;13.38;100.00;96493.22;5101542;28;20258;-49
2022/09/02 05:34:16;;;;;;;6.20;5.70;;;;;;;13.43;100.00;96490.06;5124485;28;20283;-50
2022/09/02 05:36:43;;;;;;;6.13;5.57;;;;;;;13.50;100.00;96491.06;5122238;28;20218;-51
2022/09/02 05:39:10;;;;;;;11.63;5.47;;;;;;;13.52;100.00;96498.88;5114053;28;20586;-50
2022/09/02 05:41:38;;;;;;;5.10;4.70;;;;;;;13.57;100.00;96501.88;5112878;28;20209;-50
2022/09/02 05:44:06;;;;;;;5.57;5.03;;;;;;;13.60;100.00;96497.06;5109427;28;20194;-49
2022/09/02 05:46:33;;;;;;;7.27;5.67;;;;;;;13.66;100.00;96501.72;5109467;28;20221;-50
2022/09/02 05:49:06;;;;;;;5.60;5.20;;;;;;;13.91;100.00;96490.09;5104373;28;20237;-50
2022/09/02 05:51:37;;;;;;;5.70;5.30;;;;;;;14.23;100.00;96499.84;5101895;28;21355;-50
2022/09/02 05:54:04;;;;;;;5.87;5.37;;;;;;;14.66;100.00;96495.94;5101154;28;20602;-50
2022/09/02 05:56:31;;;;;;;7.20;5.43;;;;;;;15.26;100.00;96503.31;5099928;28;20276;-49
2022/09/02 05:58:59;;;;;;;6.30;4.60;;;;;;;15.71;96.38;96502.53;5099038;28;20229;-49
2022/09/02 06:01:26;;;;;;;4.77;4.13;;;;;;;16.50;92.32;96502.00;5100901;28;20251;-52
2022/09/02 06:03:53;;;;;;;6.10;4.63;;;;;;;17.22;82.83;96500.31;5100718;28;20296;-51
2022/09/02 06:06:22;;;;;;;4.32;3.92;;;;;;;17.64;81.39;96499.56;5100520;28;20218;-48
2022/09/02 06:08:50;;;;;;;4.10;3.60;;;;;;;18.30;77.80;96501.00;5100896;28;20274;-48
2022/09/02 06:11:18;;;;;;;4.18;3.72;;;;;;;18.73;73.82;96500.91;5101097;28;20221;-51
2022/09/02 06:13:44;;;;;;;4.97;3.83;;;;;;;19.27;72.01;96503.66;5119951;28;20205;-49
2022/09/02 06:16:15;;;;;;;3.70;3.40;;;;;;;19.84;69.69;96501.34;5106812;28;20236;-50
2022/09/02 06:18:41;;;;;;;3.80;3.50;;;;;;;20.07;67.14;96510.88;5106700;28;20221;-49
2022/09/02 06:21:09;;;;;;;3.67;3.38;;;;;;;20.16;67.10;96509.66;5114196;28;20233;-50
2022/09/02 06:23:38;;;;;;;3.78;3.47;;;;;;;20.26;65.17;96502.03;5107677;28;20230;-51
2022/09/02 06:26:05;;;;;;;7.15;3.70;;;;;;;20.53;64.69;96494.81;5100412;28;20256;-49
2022/09/02 06:28:32;;;;;;;5.32;3.70;;;;;;;20.16;67.68;96499.72;5100840;28;20300;-50
2022/09/02 06:30:59;;;;;;;4.35;3.58;;;;;;;20.55;65.85;96488.19;5099453;28;20201;-48
2022/09/02 06:33:27;;;;;;;3.35;3.15;;;;;;;20.60;65.04;96493.75;5101134;28;20301;-49
2022/09/02 06:35:54;;;;;;;3.65;3.15;;;;;;;20.31;65.00;96495.03;5101287;28;20288;-51
2022/09/02 06:38:20;;;;;;;3.75;3.45;;;;;;;20.45;65.54;96493.16;5099352;28;20551;-49
2022/09/02 06:40:49;;;;;;;3.85;3.60;;;;;;;20.20;66.02;96489.41;5099972;28;20197;-48
2022/09/02 06:43:16;;;;;;;4.65;4.25;;;;;;;20.28;66.01;96481.19;5105029;28;20204;-51
2022/09/02 06:45:43;;;;;;;4.40;3.80;;;;;;;20.50;65.36;96485.31;5104847;28;20240;-49
2022/09/02 06:48:10;;;;;;;4.90;3.63;;;;;;;20.51;65.74;96486.13;5104645;28;20638;-49
2022/09/02 06:50:41;;;;;;;4.05;3.38;;;;;;;20.44;63.70;96486.13;5104134;28;20293;-49
2022/09/02 06:53:07;;;;;;;3.80;3.50;;;;;;;20.29;65.44;96485.53;5105282;28;20460;-48
2022/09/02 06:55:35;;;;;;;4.18;3.78;;;;;;;19.97;69.43;96483.63;5103559;28;20206;-49
2022/09/02 06:58:02;;;;;;;4.90;4.07;;;;;;;20.08;66.69;96485.69;5103674;28;20201;-49
2022/09/02 07:00:30;;;;;;;5.55;4.85;;;;;;;20.13;66.85;96481.34;5104005;28;20216;-50
2022/09/02 07:05:39;;;;;;;3.75;3.50;;;;;;;20.29;66.30;96486.34;5103394;28;20284;-49
2022/09/02 07:08:09;;;;;;;4.30;3.83;;;;;;;20.05;67.06;96480.75;5104361;28;20320;-50
2022/09/02 07:10:38;;;;;;;4.15;3.85;;;;;;;20.39;65.89;96482.41;5102486;28;20689;-48
2022/09/02 07:13:05;;;;;;;4.47;4.07;;;;;;;20.44;67.09;96475.38;5103315;28;20202;-49
2022/09/02 07:15:31;;;;;;;4.97;3.97;;;;;;;20.45;66.49;96477.03;5102527;28;20273;-50
2022/09/02 07:17:58;;;;;;;5.63;4.35;;;;;;;20.48;65.90;96476.63;5103959;28;20697;-51
2022/09/02 07:20:25;;;;;;;5.47;4.10;;;;;;;20.29;67.68;96482.84;5102944;28;20219;-48
2022/09/02 07:22:55;;;;;;;6.18;4.65;;;;;;;20.15;66.08;96481.16;5103447;28;20572;-50
2022/09/02 07:25:21;;;;;;;4.80;4.40;;;;;;;20.19;66.20;96483.19;5103436;28;20213;-48
2022/09/02 07:27:50;;;;;;;5.00;4.47;;;;;;;20.37;67.45;96471.88;5100873;28;20316;-51
2022/09/02 07:30:17;;;;;;;5.43;4.10;;;;;;;20.05;66.91;96480.75;5103972;28;20212;-50
2022/09/02 07:32:43;;;;;;;4.80;3.75;;;;;;;19.64;67.54;96483.56;5103610;28;20308;-49
2022/09/02 07:35:10;;;;;;;4.60;4.15;;;;;;;19.70;68.55;96483.56;5103172;28;20228;-49
2022/09/02 07:37:37;;;;;;;4.65;4.25;;;;;;;19.89;67.88;96479.28;5102898;28;20233;-50
2022/09/02 07:40:07;;;;;;;4.80;4.00;;;;;;;20.15;67.85;96475.78;5102972;28;20205;-49
2022/09/02 07:42:34;;;;;;;6.15;4.53;;;;;;;20.02;67.56;96471.22;5104546;28;20312;-49
2022/09/02 07:45:01;;;;;;;4.70;4.22;;;;;;;20.19;68.82;96483.19;5102973;28;20201;-51
2022/09/02 07:47:27;;;;;;;4.43;4.03;;;;;;;20.39;67.76;96475.19;5102152;28;20260;-50
2022/09/02 07:49:54;;;;;;;4.95;4.25;;;;;;;20.51;67.21;96473.50;5102922;28;20240;-51
2022/09/02 07:52:21;;;;;;;4.43;4.03;;;;;;;20.54;68.76;96475.78;5110644;28;20225;-49
2022/09/02 07:54:49;;;;;;;4.22;3.80;;;;;;;20.60;66.95;96474.94;5110457;28;20305;-49
2022/09/02 07:57:17;;;;;;;5.60;4.30;;;;;;;20.42;68.67;96476.63;5103964;28;20229;-49
2022/09/02 07:59:45;;;;;;;4.70;4.30;;;;;;;20.45;67.54;96477.03;5106879;28;20245;-48
2022/09/02 08:02:11;;;;;;;6.45;4.55;;;;;;;20.20;67.72;96482.19;5102896;28;20212;-50
2022/09/02 08:04:38;;;;;;;4.85;4.38;;;;;;;19.90;68.52;96482.78;5102800;28;20721;-51
2022/09/02 08:07:05;;;;;;;4.78;4.32;;;;;;;19.50;68.26;96488.09;5101609;28;20229;-49
2022/09/02 08:09:31;;;;;;;4.93;4.45;;;;;;;19.72;71.57;96480.69;5103141;28;20286;-49
2022/09/02 08:11:58;;;;;;;4.75;4.10;;;;;;;19.81;71.32;96491.03;5102444;28;20284;-49
2022/09/02 08:14:28;;;;;;;5.90;4.13;;;;;;;20.05;72.23;96491.50;5103475;28;20201;-51
2022/09/02 08:16:56;;;;;;;4.57;4.25;;;;;;;20.04;69.41;96481.78;5102568;28;20201;-49
2022/09/02 08:19:24;;;;;;;4.50;4.10;;;;;;;20.09;70.04;96487.34;5101802;28;20838;-49
2022/09/02 08:21:50;;;;;;;4.90;4.50;;;;;;;20.24;67.98;96479.91;5102349;28;20297;-49
2022/09/02 08:24:17;;;;;;;7.05;4.85;;;;;;;20.04;68.52;96487.97;5102553;28;20233;-50
2022/09/02 08:26:44;;;;;;;5.05;4.65;;;;;;;19.84;70.36;96482.56;5101053;28;20317;-50
2022/09/02 08:29:10;;;;;;;4.68;4.28;;;;;;;20.02;70.71;96478.44;5102473;28;20275;-51
2022/09/02 08:31:39;;;;;;;6.35;4.60;;;;;;;19.99;70.32;96474.34;5101774;28;20224;-50
2022/09/02 08:34:05;;;;;;;6.25;4.45;;;;;;;20.12;69.76;96470.84;5102497;28;20234;-50
2022/09/02 08:36:32;;;;;;;5.22;4.32;;;;;;;20.20;71.04;96468.75;5099377;28;20284;-50
2022/09/02 08:39:01;;;;;;;5.07;4.60;;;;;;;20.00;71.84;96475.16;5101709;28;20288;-49
2022/09/02 08:41:38;;;;;;;5.57;4.60;;;;;;;20.13;70.81;96475.16;5100531;28;20213;-49
2022/09/02 08:44:06;;;;;;;5.97;4.50;;;;;;;20.42;70.40;96466.72;5102227;28;20284;-51
2022/09/02 08:46:34;;;;;;;5.70;5.10;;;;;;;20.58;68.83;96466.25;5101403;28;20637;-50
2022/09/02 08:49:04;;;;;;;5.10;4.70;;;;;;;20.61;68.94;96468.56;5101546;28;20284;-50
2022/09/02 08:51:33;;;;;;;5.05;4.60;;;;;;;20.64;68.81;96459.22;5102440;28;20195;-50
2022/09/02 08:54:08;;;;;;;4.80;4.22;;;;;;;20.56;70.02;96457.59;5100759;28;20206;-49
2022/09/02 08:56:34;;;;;;;4.95;4.60;;;;;;;20.58;70.29;96460.88;5101049;28;20232;-51
2022/09/02 08:59:02;;;;;;;6.20;4.85;;;;;;;20.64;68.61;96454.69;5101792;28;20284;-49
2022/09/02 09:01:35;;;;;;;5.93;4.68;;;;;;;20.47;69.15;96448.13;5102465;28;20224;-50
2022/09/02 09:04:17;;;;;;;5.85;4.88;;;;;;;20.40;70.38;96447.31;5101028;28;20308;-49
2022/09/02 09:06:56;;;;;;;5.28;4.80;;;;;;;20.43;70.48;96448.75;5101696;28;20209;-49
2022/09/02 09:09:28;;;;;;;5.13;4.72;;;;;;;20.56;68.26;96446.84;5101828;28;20194;-50
2022/09/02 09:12:01;;;;;;;4.88;4.43;;;;;;;20.86;69.05;96447.19;5100956;28;20237;-51
2022/09/02 09:14:31;;;;;;;5.40;4.90;;;;;;;21.07;66.99;96443.38;5100661;28;20229;-49
2022/09/02 09:16:59;;;;;;;5.38;4.97;;;;;;;21.39;67.79;96450.50;5101652;28;20289;-48
2022/09/02 09:19:34;;;;;;;5.30;4.82;;;;;;;21.83;66.83;96445.03;5103170;28;20610;-49
2022/09/02 09:22:02;;;;;;;5.15;4.85;;;;;;;21.76;64.78;96441.56;5102346;28;20424;-49
2022/09/02 09:24:33;;;;;;;4.50;4.20;;;;;;;22.18;67.55;96445.41;5101040;28;20197;-50
2022/09/02 09:27:01;;;;;;;5.45;4.85;;;;;;;22.23;63.75;96434.00;5101252;28;20210;-49
2022/09/02 09:29:32;;;;;;;4.93;4.63;;;;;;;21.96;63.78;96432.56;5100522;28;20233;-51
2022/09/02 09:32:00;;;;;;;4.95;4.65;;;;;;;22.30;64.26;96430.19;5101391;28;20629;-49
2022/09/02 09:34:56;;;;;;;5.78;5.00;;;;;;;22.45;64.54;96424.47;5098858;28;20285;-49
2022/09/02 09:37:28;;;;;;;4.85;4.45;;;;;;;22.33;63.97;96429.75;5100837;28;20206;-50
2022/09/02 09:39:55;;;;;;;4.82;4.43;;;;;;;22.44;65.88;96428.19;5101039;28;20905;-50
2022/09/02 09:42:31;;;;;;;4.97;4.55;;;;;;;22.95;63.09;96422.50;5100402;28;20296;-50
2022/09/02 09:44:58;;;;;;;7.40;4.82;;;;;;;23.29;63.05;96426.41;5101660;28;20288;-50
2022/09/02 09:47:27;;;;;;;6.78;4.55;;;;;;;23.51;61.10;96416.81;5099349;28;20244;-49
2022/09/02 09:50:10;;;;;;;6.70;4.50;;;;;;;23.61;61.80;96425.19;5099477;28;20233;-51
2022/09/02 09:52:37;;;;;;;4.57;4.28;;;;;;;23.90;61.23;96415.41;5101663;28;20228;-50
2022/09/02 09:55:11;;;;;;;4.65;4.35;;;;;;;24.16;60.76;96412.28;5101924;28;20210;-50
2022/09/02 09:57:39;;;;;;;4.68;4.38;;;;;;;24.38;57.96;96414.41;5100145;28;20698;-48
2022/09/02 10:00:13;;;;;;;5.22;4.72;;;;;;;24.28;57.77;96415.00;5099991;28;20220;-49
2022/09/02 10:02:47;;;;;;;5.05;4.22;;;;;;;24.46;59.02;96403.25;5100682;28;20993;-49
2022/09/02 10:05:23;;;;;;;5.03;4.63;;;;;;;24.39;59.50;96407.94;5099947;28;20293;-48
2022/09/02 10:07:54;;;;;;;4.82;4.43;;;;;;;24.52;56.27;96413.94;5099079;28;20260;-49
2022/09/02 10:10:22;;;;;;;4.88;4.50;;;;;;;24.57;55.99;96405.94;5114982;28;20209;-50
2022/09/02 10:12:52;;;;;;;4.47;4.13;;;;;;;24.69;57.14;96401.34;5122228;28;20193;-50
2022/09/02 10:15:29;;;;;;;5.10;4.70;;;;;;;24.81;59.27;96395.09;5119331;28;20198;-49
2022/09/02 10:18:00;;;;;;;4.30;4.00;;;;;;;25.12;57.52;96398.22;5100596;28;20289;-50
2022/09/02 10:20:38;;;;;;;4.50;4.10;;;;;;;25.22;56.58;96398.41;5100435;28;20379;-51
2022/09/02 10:23:12;;;;;;;5.22;4.68;;;;;;;25.10;56.03;96394.13;5101424;28;20222;-49
2022/09/02 10:25:49;;;;;;;7.38;5.40;;;;;;;24.87;55.17;96394.19;5101323;28;20188;-48
2022/09/02 10:28:26;;;;;;;4.40;4.00;;;;;;;25.18;56.11;96396.44;5100064;28;20210;-49
2022/09/02 10:30:58;;;;;;;4.50;4.20;;;;;;;25.07;57.00;96395.44;5099347;28;20283;-50
2022/09/02 10:33:31;;;;;;;5.15;4.65;;;;;;;25.16;57.71;96393.13;5101550;28;21497;-50
2022/09/02 10:36:05;;;;;;;5.75;4.38;;;;;;;25.33;59.30;96385.91;5106513;28;20233;-50
2022/09/02 10:38:37;;;;;;;4.50;4.20;;;;;;;25.67;57.83;96376.00;5100704;28;20289;-50
2022/09/02 10:41:14;;;;;;;4.95;4.55;;;;;;;25.86;55.16;96377.44;5101134;28;20382;-49
2022/09/02 10:43:55;;;;;;;5.07;4.68;;;;;;;25.48;51.97;96372.66;5101829;28;20232;-48
2022/09/02 10:46:23;;;;;;;4.88;4.40;;;;;;;25.59;56.35;96374.50;5101628;28;20312;-50
2022/09/02 10:49:00;;;;;;;5.38;4.88;;;;;;;25.42;54.81;96367.38;5101277;28;20260;-48
2022/09/02 10:51:35;;;;;;;4.70;4.38;;;;;;;25.63;54.26;96356.72;5101105;28;20630;-51
2022/09/02 10:54:13;;;;;;;4.60;4.30;;;;;;;25.63;58.26;96372.13;5100449;28;20201;-49
2022/09/02 10:56:44;;;;;;;4.13;3.83;;;;;;;25.86;56.55;96371.19;5100185;28;20221;-50
2022/09/02 10:59:13;;;;;;;5.03;4.70;;;;;;;25.57;56.14;96368.53;5100363;28;20224;-48
2022/09/02 11:01:44;;;;;;;4.60;4.28;;;;;;;25.41;56.20;96361.16;5100559;28;20221;-49
2022/09/02 11:04:14;;;;;;;4.93;4.50;;;;;;;25.52;56.46;96354.88;5100339;28;20202;-49
2022/09/02 11:06:44;;;;;;;4.53;4.22;;;;;;;25.68;55.91;96348.66;5100126;28;20732;-49
2022/09/02 11:09:13;;;;;;;8.57;4.50;;;;;;;25.72;58.70;96355.22;5100423;28;20214;-50
2022/09/02 11:11:44;;;;;;;5.95;5.03;;;;;;;25.53;55.09;96347.59;5100500;28;20207;-50
2022/09/02 11:14:17;;;;;;;5.22;4.75;;;;;;;25.82;58.66;96349.19;5099088;28;20198;-48
2022/09/02 11:16:47;;;;;;;5.03;4.63;;;;;;;25.85;57.14;96342.44;5099984;28;20284;-52
2022/09/02 11:19:16;;;;;;;4.40;4.10;;;;;;;25.94;56.42;96349.09;5100678;28;20297;-48
2022/09/02 11:21:50;;;;;;;5.80;4.53;;;;;;;25.81;56.37;96349.41;5100969;28;20194;-49
2022/09/02 11:24:22;;;;;;;4.80;4.50;;;;;;;26.00;57.20;96348.13;5101240;28;20564;-49
2022/09/02 11:26:55;;;;;;;5.20;4.70;;;;;;;26.08;56.07;96353.94;5101400;28;20293;-49
2022/09/02 11:29:28;;;;;;;4.47;4.18;;;;;;;26.08;56.83;96353.09;5101968;28;20210;-50
2022/09/02 11:32:01;;;;;;;4.32;4.03;;;;;;;26.01;51.79;96344.31;5104649;28;20205;-49
2022/09/02 11:34:35;;;;;;;5.63;4.15;;;;;;;26.20;56.59;96341.16;5104492;28;20234;-48
2022/09/02 11:37:05;;;;;;;7.68;4.50;;;;;;;26.18;55.51;96345.19;5104280;28;20229;-50
2022/09/02 11:39:34;;;;;;;4.82;4.32;;;;;;;26.17;55.17;96341.66;5103463;28;20218;-49